Pagrindinis puslapis
METAR-TAF:

METAR-TAF

Oro uostai :

Wakkanai, Japonija

platuma: 45-24N, ilguma: 141-48E, Aukštis: 8 m

Dabartinis oras

Ataskaita buvo paskelbta 5 valandos ir 4 minutes, ne 09:00 UTC
Vėjas 6 kt iš Rytų
Temperatūra 7°C
Drėgmė 66%
Slėgis 1020 hPa
Matomumas 10 km arba daugiau
Mažai debesys ne aukštis 1500 ft
Su prošvaistėmis

METAR: RJCW 120900Z 10006KT 9999 FEW015 BKN/// 07/01 Q1020

Laikas: 23:04 (14:04 UTC)


TAF: trūkstamas

Orai ataskaitas ir orų prognozės (METAR, TAF).

turimą stotys yra geltonos ir raudonos taškus žemėlapyje.

Perkelti pele per norėdami pamatyti stoties vardą.

Tada spustelėkite, norėdami matyti oro stebėjimo ir prognozės.

Norėdami pakeisti žemėlapį: spustelėkite ant žalios mygtukų su juodo kryžiaus žemyn,; žalią mygtuką su brūkšneliu, jei norite nutolinti; arba žalių rodyklių gretimoms žemėlapius.


METAR-TAF: